Time;durP1;ratioP1;P1;durP2;ratioP2;P2;SDS_P1;SDS_P2;PMS_P1;PMS_P2;Temp;Humidity;BMP_temperature;BMP_pressure;BME280_temperature;BME280_humidity;BME280_pressure;Samples;Min_cycle;Max_cycle;Signal;HPM_P1;HPM_P2
2023/04/17 00:02:17;;;;;;;16.98;11.30;;;;;;;10.43;20.50;100945.03;5092106;28;20059;-56
2023/04/17 00:04:44;;;;;;;15.98;11.30;;;;;;;10.42;21.12;100943.31;5092352;28;20028;-52
2023/04/17 00:07:10;;;;;;;19.30;11.95;;;;;;;10.41;20.97;100946.94;5092510;28;20032;-49
2023/04/17 00:09:35;;;;;;;22.48;12.18;;;;;;;10.39;20.77;100943.47;5077078;28;20040;-51
2023/04/17 00:12:01;;;;;;;19.92;11.98;;;;;;;10.38;20.85;100947.09;5095943;28;20439;-57
2023/04/17 00:14:27;;;;;;;21.67;12.30;;;;;;;10.33;20.85;100942.03;5096536;28;20039;-52
2023/04/17 00:16:53;;;;;;;17.05;12.68;;;;;;;10.31;20.99;100937.69;5096894;28;20093;-52
2023/04/17 00:19:18;;;;;;;20.65;12.95;;;;;;;10.20;20.66;100928.53;5096634;28;20030;-55
2023/04/17 00:21:44;;;;;;;24.33;12.95;;;;;;;10.29;21.15;100942.28;5095844;28;20158;-50
2023/04/17 00:24:11;;;;;;;23.08;13.10;;;;;;;10.25;21.20;100941.63;5096156;28;20035;-55
2023/04/17 00:26:37;;;;;;;21.10;12.77;;;;;;;10.20;21.33;100938.38;5096125;28;20036;-54
2023/04/17 00:29:03;;;;;;;19.88;12.65;;;;;;;10.15;21.08;100936.00;5096343;28;20032;-56
2023/04/17 00:31:28;;;;;;;21.83;13.55;;;;;;;10.16;21.23;100939.50;5095952;28;20354;-57
2023/04/17 00:33:54;;;;;;;22.10;13.93;;;;;;;10.16;21.15;100940.38;5096354;28;20431;-55
2023/04/17 00:36:19;;;;;;;21.15;13.75;;;;;;;10.08;21.21;100933.78;5095545;28;20070;-50
2023/04/17 00:38:45;;;;;;;20.92;13.32;;;;;;;10.03;21.51;100942.06;5078167;28;20135;-51
2023/04/17 00:41:11;;;;;;;21.45;13.30;;;;;;;9.95;21.21;100933.66;5095431;28;20040;-51
2023/04/17 00:43:37;;;;;;;23.20;13.48;;;;;;;9.96;21.31;100946.94;5096099;28;20062;-56
2023/04/17 00:46:04;;;;;;;20.40;13.95;;;;;;;9.91;21.58;100939.19;5061366;28;20094;-53
2023/04/17 00:48:31;;;;;;;19.10;13.57;;;;;;;9.89;21.50;100941.09;5096216;28;20024;-56
2023/04/17 00:51:01;;;;;;;21.88;13.82;;;;;;;9.86;21.43;100941.25;5095777;28;20032;-56
2023/04/17 00:53:28;;;;;;;25.42;13.93;;;;;;;9.81;21.94;100942.50;5095462;28;20024;-64
2023/04/17 00:55:54;;;;;;;25.65;14.63;;;;;;;9.78;21.95;100938.19;5095769;28;20320;-57
2023/04/17 00:58:20;;;;;;;28.27;14.63;;;;;;;9.75;21.98;100943.72;5078116;28;20035;-55
2023/04/17 01:00:47;;;;;;;23.83;14.05;;;;;;;9.74;22.16;100940.19;5077393;28;20024;-55
2023/04/17 01:03:13;;;;;;;22.20;14.23;;;;;;;9.74;22.12;100932.16;5095543;28;20043;-54
2023/04/17 01:05:40;;;;;;;28.10;14.63;;;;;;;9.74;22.06;100940.19;5095638;28;20024;-56
2023/04/17 01:08:05;;;;;;;20.30;14.00;;;;;;;9.73;22.16;100934.94;5095426;28;20032;-54
2023/04/17 01:10:31;;;;;;;23.17;14.30;;;;;;;9.55;21.93;100904.81;5095303;28;20032;-55
2023/04/17 01:13:04;;;;;;;25.35;14.82;;;;;;;9.75;22.21;100938.38;5095599;28;20101;-53
2023/04/17 01:15:29;;;;;;;25.08;15.02;;;;;;;9.67;22.28;100935.31;5095305;28;20047;-56
2023/04/17 01:17:55;;;;;;;22.95;14.07;;;;;;;9.67;21.97;100936.16;5095630;28;20470;-58
2023/04/17 01:20:20;;;;;;;25.27;14.32;;;;;;;9.47;22.16;100900.75;5094118;28;20448;-57
2023/04/17 01:22:49;;;;;;;26.73;14.70;;;;;;;9.58;22.44;100929.53;5077511;28;20123;-53
2023/04/17 01:25:15;;;;;;;21.95;14.60;;;;;;;9.65;22.37;100935.38;5077001;28;20447;-55
2023/04/17 01:27:40;;;;;;;25.45;15.73;;;;;;;9.65;22.13;100937.22;5095011;28;20028;-56
2023/04/17 01:30:07;;;;;;;22.13;14.52;;;;;;;9.53;22.67;100922.75;5095126;28;20423;-55
2023/04/17 01:32:32;;;;;;;20.88;14.57;;;;;;;9.58;22.23;100931.38;5095298;28;20101;-54
2023/04/17 01:34:59;;;;;;;23.88;15.15;;;;;;;9.46;22.34;100919.56;5095328;28;20071;-64
2023/04/17 01:37:24;;;;;;;22.13;14.35;;;;;;;9.57;22.63;100935.84;5095703;28;20020;-51
2023/04/17 01:39:50;;;;;;;19.52;14.48;;;;;;;9.40;22.40;100909.22;5094745;28;20664;-55
2023/04/17 01:42:16;;;;;;;25.73;14.80;;;;;;;9.36;22.90;100899.66;5094781;28;20408;-55
2023/04/17 01:44:41;;;;;;;20.33;14.18;;;;;;;9.52;22.26;100931.69;5094916;28;20443;-58
2023/04/17 01:47:07;;;;;;;27.73;15.25;;;;;;;9.54;22.42;100938.69;5095035;28;20069;-56
2023/04/17 01:49:32;;;;;;;23.50;14.82;;;;;;;9.55;22.38;100943.09;5094351;28;20028;-55
2023/04/17 01:51:58;;;;;;;24.88;14.15;;;;;;;9.52;22.60;100931.69;5094968;28;20028;-55
2023/04/17 01:54:24;;;;;;;20.92;14.10;;;;;;;9.54;22.64;100937.84;5094975;28;20028;-52
2023/04/17 01:56:50;;;;;;;22.92;14.20;;;;;;;9.53;22.69;100938.81;5094413;28;20055;-57
2023/04/17 01:59:15;;;;;;;19.33;13.95;;;;;;;9.38;22.67;100924.50;5093972;28;20489;-54
2023/04/17 02:01:41;;;;;;;20.05;14.27;;;;;;;9.48;22.83;100933.72;5094782;28;20031;-56
2023/04/17 02:04:06;;;;;;;26.98;15.38;;;;;;;9.46;22.82;100938.28;5094814;28;20060;-54
2023/04/17 02:06:32;;;;;;;24.90;14.93;;;;;;;9.46;22.81;100932.94;5094295;28;20044;-55
2023/04/17 02:08:58;;;;;;;23.00;14.98;;;;;;;9.43;23.12;100938.47;5094683;28;20035;-55
2023/04/17 02:11:25;;;;;;;27.92;15.77;;;;;;;9.41;23.14;100935.03;5094466;28;20065;-52
2023/04/17 02:13:50;;;;;;;23.05;14.45;;;;;;;9.41;23.43;100935.03;5094062;28;20039;-56
2023/04/17 02:16:20;;;;;;;27.40;16.17;;;;;;;9.34;23.33;100927.34;5094066;28;20024;-56
2023/04/17 02:18:46;;;;;;;23.25;14.55;;;;;;;9.39;23.32;100936.91;5093768;28;20172;-55
2023/04/17 02:21:11;;;;;;;21.17;14.18;;;;;;;9.37;23.25;100934.34;5094337;28;20028;-50
2023/04/17 02:23:37;;;;;;;23.63;15.57;;;;;;;9.40;23.51;100935.94;5094284;28;20415;-52
2023/04/17 02:26:03;;;;;;;28.10;16.05;;;;;;;9.41;23.35;100935.88;5093414;28;20101;-55
2023/04/17 02:28:29;;;;;;;22.65;15.32;;;;;;;9.43;23.32;100938.47;5094368;28;20082;-56
2023/04/17 02:30:54;;;;;;;26.50;15.63;;;;;;;9.43;23.40;100927.78;5076417;28;20028;-51
2023/04/17 02:33:20;;;;;;;21.35;15.45;;;;;;;9.46;23.47;100941.81;5093976;28;20085;-54
2023/04/17 02:35:46;;;;;;;22.63;15.00;;;;;;;9.36;23.02;100918.38;5076086;28;20109;-52
2023/04/17 02:38:12;;;;;;;23.33;14.88;;;;;;;9.58;23.33;100931.38;5093448;28;20036;-52
2023/04/17 02:40:37;;;;;;;20.42;14.40;;;;;;;9.65;23.17;100939.88;5094017;28;20063;-53
2023/04/17 02:43:03;;;;;;;24.20;15.00;;;;;;;9.72;23.26;100934.06;5093815;28;20046;-54
2023/04/17 02:45:29;;;;;;;27.23;14.98;;;;;;;9.75;23.17;100930.34;5093914;28;20122;-54
2023/04/17 02:47:55;;;;;;;25.83;15.18;;;;;;;9.85;22.95;100934.19;5093496;28;20109;-49
2023/04/17 02:50:21;;;;;;;25.67;15.02;;;;;;;9.88;22.89;100935.84;5075990;28;20039;-52
2023/04/17 02:52:46;;;;;;;28.55;14.45;;;;;;;9.96;22.81;100943.41;5093555;28;20150;-52
2023/04/17 02:55:12;;;;;;;21.80;14.88;;;;;;;10.02;22.98;100940.34;5093061;28;20106;-60
2023/04/17 02:57:37;;;;;;;25.52;15.45;;;;;;;10.10;23.23;100942.56;5093395;28;20048;-48
2023/04/17 03:00:13;;;;;;;24.48;15.10;;;;;;;9.95;23.25;100907.75;5093506;28;20035;-65
2023/04/17 03:02:39;;;;;;;21.17;13.98;;;;;;;10.19;23.67;100937.53;5092957;28;20035;-54
2023/04/17 03:05:05;;;;;;;24.13;14.60;;;;;;;10.28;23.35;100938.78;5093256;28;20032;-52
2023/04/17 03:07:31;;;;;;;29.70;15.15;;;;;;;10.34;23.28;100934.84;5093300;28;20032;-53
2023/04/17 03:09:57;;;;;;;25.98;14.75;;;;;;;10.41;23.11;100943.38;5093048;28;20469;-50
2023/04/17 03:12:24;;;;;;;29.73;14.40;;;;;;;10.45;23.23;100943.09;5093214;28;20105;-49
2023/04/17 03:14:50;;;;;;;20.00;14.10;;;;;;;10.50;23.03;100950.00;5092745;28;20028;-52
2023/04/17 03:17:16;;;;;;;23.13;14.07;;;;;;;10.55;23.24;100939.84;5092918;28;20089;-54
2023/04/17 03:19:41;;;;;;;29.13;14.38;;;;;;;10.59;23.31;100936.00;5093115;28;20043;-53
2023/04/17 03:22:07;;;;;;;27.73;14.57;;;;;;;10.51;23.15;100914.22;5092932;28;20076;-58
2023/04/17 03:24:32;;;;;;;21.92;14.98;;;;;;;10.51;23.14;100908.88;5093084;28;20070;-56
2023/04/17 03:26:59;;;;;;;25.20;14.35;;;;;;;10.70;23.06;100944.25;5092664;28;20035;-53
2023/04/17 03:29:25;;;;;;;25.42;13.85;;;;;;;10.73;22.42;100949.41;5092915;28;20028;-55
2023/04/17 03:31:51;;;;;;;19.52;13.98;;;;;;;10.62;22.57;100938.53;5092822;28;20332;-54
2023/04/17 03:34:17;;;;;;;18.45;13.40;;;;;;;10.74;22.34;100961.84;5092586;28;20027;-54
2023/04/17 03:36:43;;;;;;;20.75;14.00;;;;;;;10.76;22.34;100962.59;5058299;28;20056;-54
2023/04/17 03:39:09;;;;;;;25.08;13.90;;;;;;;10.80;22.40;100967.75;5092460;28;20036;-52
2023/04/17 03:41:34;;;;;;;22.98;14.18;;;;;;;10.85;22.48;100965.63;5075349;28;20039;-53
2023/04/17 03:44:00;;;;;;;21.35;14.23;;;;;;;10.91;22.21;100965.28;5074351;28;20451;-55
2023/04/17 03:46:25;;;;;;;25.23;14.30;;;;;;;10.95;22.35;100961.44;5092536;28;20047;-51
2023/04/17 03:48:51;;;;;;;19.73;12.98;;;;;;;11.01;22.20;100955.66;5092641;28;20443;-51
2023/04/17 03:51:16;;;;;;;23.10;12.82;;;;;;;11.05;21.66;100951.81;5092895;28;20051;-53
2023/04/17 03:53:42;;;;;;;21.90;14.20;;;;;;;11.18;21.59;100962.63;5092124;28;20028;-55
2023/04/17 03:56:07;;;;;;;24.88;13.48;;;;;;;11.20;21.96;100949.13;5092396;28;20042;-54
2023/04/17 03:58:33;;;;;;;20.63;12.52;;;;;;;11.26;21.64;100954.06;5093066;28;20127;-52
2023/04/17 04:01:00;;;;;;;22.88;12.95;;;;;;;11.27;21.70;100950.44;5092466;28;20028;-52
2023/04/17 04:03:27;;;;;;;22.08;13.40;;;;;;;11.43;21.68;100965.53;5092566;28;20236;-54
2023/04/17 04:05:53;;;;;;;18.52;12.98;;;;;;;11.47;21.57;100956.31;5058010;28;20034;-54
2023/04/17 04:08:18;;;;;;;25.17;13.32;;;;;;;11.55;21.58;100956.66;5092413;28;20120;-55
2023/04/17 04:10:44;;;;;;;21.67;13.45;;;;;;;11.63;21.12;100964.19;5075333;28;20111;-51
2023/04/17 04:13:10;;;;;;;21.80;13.70;;;;;;;11.58;21.11;100940.38;5091786;28;20029;-52
2023/04/17 04:15:36;;;;;;;23.08;13.77;;;;;;;11.84;20.87;100961.03;5092167;28;20044;-55
2023/04/17 04:18:02;;;;;;;22.63;13.02;;;;;;;11.89;20.75;100958.88;5092370;28;20104;-55
2023/04/17 04:20:27;;;;;;;21.75;13.73;;;;;;;12.02;21.21;100961.63;5092500;28;20040;-56
2023/04/17 04:22:56;;;;;;;26.33;14.07;;;;;;;12.10;21.02;100961.97;5091756;28;20428;-54
2023/04/17 04:25:25;;;;;;;22.27;14.23;;;;;;;12.23;21.03;100966.47;5092113;28;20028;-54
2023/04/17 04:27:51;;;;;;;29.10;14.13;;;;;;;12.15;20.90;100957.13;5090912;28;20020;-56
2023/04/17 04:30:18;;;;;;;23.23;13.77;;;;;;;12.30;20.74;100973.16;5090872;28;20016;-54
2023/04/17 04:32:44;;;;;;;24.48;14.10;;;;;;;12.32;21.00;100966.69;5090523;28;20113;-55
2023/04/17 04:35:11;;;;;;;30.65;13.63;;;;;;;12.34;20.90;100967.44;5090483;28;20028;-54
2023/04/17 04:37:37;;;;;;;24.08;14.48;;;;;;;12.29;21.09;100961.53;5090965;28;20028;-55
2023/04/17 04:40:09;;;;;;;25.20;15.43;;;;;;;12.32;20.98;100968.53;5090802;28;20067;-59
2023/04/17 04:42:38;;;;;;;28.83;14.20;;;;;;;12.38;20.97;100973.47;5091168;28;20350;-55
2023/04/17 04:45:05;;;;;;;29.13;14.52;;;;;;;12.34;21.08;100969.28;5090991;28;20032;-53
2023/04/17 04:47:33;;;;;;;27.88;14.73;;;;;;;12.31;21.02;100967.66;5090807;28;20465;-56
2023/04/17 04:49:58;;;;;;;31.55;15.10;;;;;;;12.37;21.02;100974.44;5090451;28;20024;-56
2023/04/17 04:52:25;;;;;;;24.67;14.07;;;;;;;12.38;21.06;100976.16;5090466;28;20028;-55
2023/04/17 04:54:51;;;;;;;27.45;15.35;;;;;;;12.09;21.05;100924.47;5091786;28;20095;-57
2023/04/17 04:57:17;;;;;;;29.75;15.38;;;;;;;12.42;21.03;100980.34;5094460;28;20055;-56
2023/04/17 04:59:42;;;;;;;30.58;16.10;;;;;;;12.22;20.83;100944.16;5094287;28;20180;-57
2023/04/17 05:02:08;;;;;;;33.13;15.00;;;;;;;12.38;20.68;100973.47;5093916;28;20415;-64
2023/04/17 05:04:34;;;;;;;25.00;15.27;;;;;;;12.39;20.84;100972.50;5094372;28;20523;-53
2023/04/17 05:07:00;;;;;;;22.48;14.15;;;;;;;12.42;20.63;100979.47;5073736;28;20030;-56
2023/04/17 05:09:26;;;;;;;22.80;13.68;;;;;;;12.41;20.71;100978.63;5076559;28;20027;-57
2023/04/17 05:11:55;;;;;;;19.73;14.15;;;;;;;12.28;20.51;100949.09;5094090;28;20145;-59
2023/04/17 05:14:21;;;;;;;26.17;15.20;;;;;;;12.51;20.58;100975.28;5091585;28;20095;-55
2023/04/17 05:16:46;;;;;;;25.40;15.10;;;;;;;12.55;20.58;100976.81;5094013;28;20473;-53
2023/04/17 05:19:12;;;;;;;25.05;15.13;;;;;;;12.42;20.61;100940.06;5094888;28;20113;-56
2023/04/17 05:21:37;;;;;;;22.92;15.35;;;;;;;12.68;20.56;100974.94;5077882;28;20116;-53
2023/04/17 05:24:03;;;;;;;26.65;15.75;;;;;;;12.80;20.63;100977.75;5095325;28;20085;-54
2023/04/17 05:26:28;;;;;;;28.30;15.88;;;;;;;12.90;20.53;100968.91;5076621;28;20115;-50
2023/04/17 05:28:54;;;;;;;28.02;16.55;;;;;;;12.85;20.30;100946.84;5076112;28;20031;-55
2023/04/17 05:31:20;;;;;;;30.25;15.65;;;;;;;13.19;20.33;100973.13;5093533;28;20090;-56
2023/04/17 05:33:47;;;;;;;27.23;16.83;;;;;;;13.43;19.98;100981.25;5093782;28;20633;-58
2023/04/17 05:36:12;;;;;;;22.25;14.98;;;;;;;13.63;19.71;100950.16;5093670;28;20020;-54
2023/04/17 05:38:39;;;;;;;24.70;16.33;;;;;;;14.12;19.42;100976.13;5093917;28;20046;-52
2023/04/17 05:41:06;;;;;;;28.95;15.75;;;;;;;14.56;18.92;100971.75;5090812;28;20106;-53
2023/04/17 05:43:32;;;;;;;29.13;15.55;;;;;;;15.23;18.12;100971.88;5075651;28;20434;-53
2023/04/17 05:45:57;;;;;;;27.17;15.10;;;;;;;16.05;17.22;100964.22;5093530;28;20055;-55
2023/04/17 05:48:23;;;;;;;26.83;15.77;;;;;;;16.50;16.97;100934.19;5093980;28;20032;-56
2023/04/17 05:50:49;;;;;;;29.98;15.40;;;;;;;17.05;16.32;100965.44;5094727;28;20036;-54
2023/04/17 05:53:14;;;;;;;27.63;15.45;;;;;;;17.17;16.36;100962.63;5095106;28;20064;-51
2023/04/17 05:55:40;;;;;;;25.05;15.85;;;;;;;17.30;16.19;100963.19;5094430;28;20427;-58
2023/04/17 05:58:06;;;;;;;24.05;15.23;;;;;;;17.37;16.17;100963.50;5094963;28;20126;-55
2023/04/17 06:00:31;;;;;;;32.38;15.57;;;;;;;17.46;16.33;100961.81;5094057;28;20044;-56
2023/04/17 06:02:57;;;;;;;31.85;15.73;;;;;;;17.45;16.09;100950.09;5076960;28;20071;-55
2023/04/17 06:05:22;;;;;;;35.30;16.08;;;;;;;17.32;16.30;100947.66;5094200;28;20110;-55
2023/04/17 06:07:49;;;;;;;28.13;15.82;;;;;;;17.18;16.36;100958.91;5093954;28;20491;-55
2023/04/17 06:10:14;;;;;;;26.23;15.80;;;;;;;16.92;16.60;100959.41;5094343;28;20467;-53
2023/04/17 06:12:40;;;;;;;26.92;15.68;;;;;;;16.69;16.87;100954.19;5094905;28;20099;-56
2023/04/17 06:15:08;;;;;;;36.58;15.98;;;;;;;16.57;17.09;100960.66;5094439;28;20104;-56
2023/04/17 06:17:36;;;;;;;28.27;16.67;;;;;;;16.49;16.89;100970.31;5094248;28;20047;-58
2023/04/17 06:20:03;;;;;;;32.00;15.52;;;;;;;16.43;17.00;100968.16;5094123;28;20366;-55
2023/04/17 06:22:29;;;;;;;26.50;16.20;;;;;;;16.53;16.94;100961.94;5094497;28;20047;-57
2023/04/17 06:24:54;;;;;;;31.42;16.40;;;;;;;16.59;16.75;100967.66;5076265;28;20452;-58
2023/04/17 06:27:20;;;;;;;35.83;17.05;;;;;;;16.55;16.95;100976.16;5094223;28;20119;-57
2023/04/17 06:29:45;;;;;;;31.23;16.83;;;;;;;16.25;17.10;100965.19;5093959;28;20453;-56
2023/04/17 06:32:11;;;;;;;29.25;16.30;;;;;;;16.09;17.59;100979.16;5094540;28;20023;-63
2023/04/17 06:34:36;;;;;;;26.10;16.75;;;;;;;15.99;17.25;100976.41;5094034;28;20039;-55
2023/04/17 06:37:02;;;;;;;23.60;16.33;;;;;;;15.86;17.40;100973.84;5093437;28;20032;-53
2023/04/17 06:39:28;;;;;;;29.98;17.17;;;;;;;15.84;17.74;100975.81;5093605;28;20044;-53
2023/04/17 06:41:55;;;;;;;24.63;16.42;;;;;;;15.78;18.09;100984.47;5093055;28;20047;-55
2023/04/17 06:44:20;;;;;;;26.52;15.73;;;;;;;15.79;18.20;100984.34;5092932;28;20097;-55
2023/04/17 06:46:46;;;;;;;28.67;17.08;;;;;;;15.72;17.85;100976.88;5093486;28;20067;-53
2023/04/17 06:49:11;;;;;;;27.02;15.93;;;;;;;15.80;17.58;100982.47;5093962;28;20447;-51
2023/04/17 06:51:36;;;;;;;27.25;14.13;;;;;;;16.04;17.19;100987.69;5093629;28;20068;-53
2023/04/17 06:54:02;;;;;;;25.55;15.20;;;;;;;16.38;17.06;100951.47;5093163;28;20570;-56
2023/04/17 06:56:27;;;;;;;26.85;15.90;;;;;;;17.12;16.42;100989.22;5093527;28;20132;-51
2023/04/17 06:58:53;;;;;;;31.52;16.33;;;;;;;17.60;15.96;100985.78;5093325;28;20035;-57
2023/04/17 07:01:19;;;;;;;23.55;15.52;;;;;;;18.00;15.66;100978.50;5093423;28;20069;-55
2023/04/17 07:03:45;;;;;;;27.42;15.45;;;;;;;18.55;15.06;100985.09;5093443;28;20042;-56
2023/04/17 07:06:11;;;;;;;27.13;15.45;;;;;;;18.99;15.08;100976.38;5093687;28;20046;-57
2023/04/17 07:08:37;;;;;;;30.20;15.43;;;;;;;19.55;14.55;100983.59;5093019;28;20035;-57
2023/04/17 07:11:02;;;;;;;26.48;15.95;;;;;;;20.11;14.15;100980.72;5093455;28;20039;-58
2023/04/17 07:13:30;;;;;;;32.97;15.68;;;;;;;20.55;13.86;100985.28;5092926;28;20062;-51
2023/04/17 07:15:57;;;;;;;27.27;15.88;;;;;;;20.65;13.48;100983.28;5092711;28;20036;-53
2023/04/17 07:18:25;;;;;;;34.60;17.13;;;;;;;20.54;13.65;100980.84;5089552;28;20030;-58
2023/04/17 07:20:51;;;;;;;27.23;14.38;;;;;;;20.55;13.48;100983.38;5089151;28;20081;-61
2023/04/17 07:23:17;;;;;;;32.63;17.20;;;;;;;20.56;13.41;100976.94;5084132;28;20058;-64
2023/04/17 07:25:43;;;;;;;28.27;15.75;;;;;;;20.56;13.66;100981.53;5091860;28;20066;-55
2023/04/17 07:28:08;;;;;;;32.13;16.33;;;;;;;20.57;13.76;100978.63;5092120;28;20097;-57
2023/04/17 07:30:34;;;;;;;32.22;15.80;;;;;;;20.71;13.62;100990.78;5092513;28;20339;-54
2023/04/17 07:33:00;;;;;;;36.80;15.75;;;;;;;20.90;13.74;100986.16;5092491;28;20358;-54
2023/04/17 07:35:27;;;;;;;33.72;15.77;;;;;;;21.09;13.41;100987.75;5092540;28;20110;-53
2023/04/17 07:37:52;;;;;;;27.75;15.48;;;;;;;21.44;13.10;100976.78;5092628;28;20107;-54
2023/04/17 07:40:18;;;;;;;38.05;16.25;;;;;;;22.05;12.52;100984.69;5090393;28;20116;-58
2023/04/17 07:42:45;;;;;;;31.23;15.90;;;;;;;23.05;11.88;100986.19;5091340;28;20333;-64
2023/04/17 07:45:10;;;;;;;28.63;15.05;;;;;;;23.83;11.52;100985.38;5092539;28;20107;-54
2023/04/17 07:47:36;;;;;;;36.08;14.85;;;;;;;24.70;10.69;100983.19;5092290;28;20032;-53
2023/04/17 07:50:02;;;;;;;26.00;13.32;;;;;;;25.68;10.23;100984.81;5092218;28;20434;-59
2023/04/17 07:52:29;;;;;;;23.77;12.00;;;;;;;27.43;9.24;100968.63;5074829;28;20354;-56
2023/04/17 07:54:55;;;;;;;22.63;12.55;;;;;;;29.51;7.86;100972.97;5092265;28;20028;-56
2023/04/17 07:57:22;;;;;;;21.92;12.82;;;;;;;30.83;6.94;100969.47;5074740;28;20036;-52
2023/04/17 07:59:47;;;;;;;22.05;12.50;;;;;;;32.48;6.40;100976.56;5092349;28;20450;-57
2023/04/17 08:02:14;;;;;;;25.73;13.23;;;;;;;33.72;6.07;100971.81;5092668;28;20082;-54
2023/04/17 08:04:40;;;;;;;21.73;12.65;;;;;;;33.95;5.45;100958.84;5092103;28;20024;-52
2023/04/17 08:07:09;;;;;;;21.45;12.10;;;;;;;33.11;5.95;100941.81;5092240;28;20482;-60
2023/04/17 08:09:36;;;;;;;12.40;9.95;;;;;;;31.47;6.44;100974.59;5092322;28;20220;-57
2023/04/17 08:12:02;;;;;;;23.48;9.27;;;;;;;29.51;7.60;100971.03;5092262;28;20032;-59
2023/04/17 08:14:27;;;;;;;14.05;6.97;;;;;;;27.79;8.62;100972.94;5094488;28;20079;-66
2023/04/17 08:16:53;;;;;;;15.52;7.05;;;;;;;26.23;9.36;100967.81;5092010;28;20457;-65
2023/04/17 08:19:19;;;;;;;15.05;6.95;;;;;;;24.74;10.43;100968.09;5050941;28;20569;-64
2023/04/17 08:21:48;;;;;;;12.32;7.57;;;;;;;23.53;11.25;100982.53;5091756;28;20370;-70
2023/04/17 08:24:14;;;;;;;15.13;8.02;;;;;;;22.53;12.25;100967.59;5092407;28;20463;-64
2023/04/17 08:26:40;;;;;;;14.15;6.93;;;;;;;21.98;12.59;100968.16;5091881;28;20119;-66
2023/04/17 08:29:06;;;;;;;11.77;5.75;;;;;;;21.41;12.85;100971.66;5073772;28;20051;-68
2023/04/17 08:31:35;;;;;;;10.05;5.10;;;;;;;21.01;12.72;100966.81;5058221;28;20036;-64
2023/04/17 08:34:01;;;;;;;9.57;6.03;;;;;;;20.75;13.34;100937.75;5078134;28;20032;-66
2023/04/17 08:36:27;;;;;;;10.52;6.78;;;;;;;21.08;13.23;100975.16;5094485;28;20427;-67
2023/04/17 08:38:53;;;;;;;8.98;6.10;;;;;;;21.25;12.91;100957.00;5094591;28;20103;-68
2023/04/17 08:41:21;;;;;;;10.43;6.20;;;;;;;21.33;12.45;100969.78;5095365;28;20100;-66
2023/04/17 08:43:50;;;;;;;19.63;8.85;;;;;;;21.42;12.24;100960.63;5076153;28;20488;-69
2023/04/17 08:46:19;;;;;;;26.63;15.20;;;;;;;21.53;12.62;100967.63;5092886;28;20036;-66
2023/04/17 08:48:45;;;;;;;28.67;13.80;;;;;;;21.84;12.33;100955.25;5093749;28;20343;-68
2023/04/17 08:51:10;;;;;;;28.42;12.98;;;;;;;21.85;11.92;100946.88;5094767;28;20028;-67
2023/04/17 08:53:36;;;;;;;41.15;18.73;;;;;;;21.79;12.29;100947.56;5076528;28;20043;-67
2023/04/17 08:56:05;;;;;;;36.42;15.68;;;;;;;21.90;12.35;100960.00;5076443;28;20032;-69
2023/04/17 08:58:32;;;;;;;33.13;13.20;;;;;;;21.96;11.79;100953.03;5093725;28;20028;-67
2023/04/17 09:01:07;;;;;;;16.55;9.82;;;;;;;21.99;11.95;100958.13;5093655;28;20715;-68
2023/04/17 09:03:44;;;;;;;;;;;;;;;22.52;11.82;100972.19;5091482;28;20123;-68
2023/04/17 09:06:10;;;;;;;23.20;12.88;;;;;;;21.82;11.26;100940.91;5093439;28;20011;-67
2023/04/17 09:08:55;;;;;;;29.55;16.88;;;;;;;21.87;11.65;100949.44;5087797;28;20067;-68
2023/04/17 09:11:21;;;;;;;26.95;13.77;;;;;;;21.71;11.98;100955.75;5089849;28;20482;-67
2023/04/17 09:13:46;;;;;;;25.90;14.10;;;;;;;21.62;11.87;100947.50;5094600;28;20119;-68
2023/04/17 09:16:14;;;;;;;69.60;33.67;;;;;;;21.40;12.21;100953.63;5095501;28;20031;-68
2023/04/17 09:18:41;;;;;;;44.20;23.27;;;;;;;20.86;12.38;100919.44;5065119;28;20040;-70
2023/04/17 09:21:08;;;;;;;38.78;18.63;;;;;;;20.85;13.03;100950.41;5075446;28;20028;-68
2023/04/17 09:23:54;;;;;;;15.93;8.93;;;;;;;21.02;13.06;100951.31;5093715;28;20366;-68
2023/04/17 09:26:21;;;;;;;14.13;7.15;;;;;;;20.85;12.95;100947.69;5091941;28;20068;-68
2023/04/17 09:29:03;;;;;;;18.05;7.70;;;;;;;20.93;13.23;100951.28;5093801;28;20389;-66
2023/04/17 09:31:30;;;;;;;16.42;8.35;;;;;;;20.67;13.04;100942.31;5091655;28;20340;-67
2023/04/17 09:33:57;;;;;;;26.10;11.50;;;;;;;20.56;13.37;100946.16;5089415;28;20450;-70
2023/04/17 09:36:23;;;;;;;43.15;20.48;;;;;;;20.48;13.64;100938.81;5093505;28;20042;-70
2023/04/17 09:38:50;;;;;;;56.35;27.05;;;;;;;20.56;13.65;100940.72;5092539;28;20125;-68
2023/04/17 09:41:26;;;;;;;40.00;23.08;;;;;;;20.95;13.52;100948.38;5092409;28;20079;-67
2023/04/17 09:43:54;;;;;;;38.58;20.20;;;;;;;20.78;13.59;100914.78;5094189;28;20051;-68
2023/04/17 09:46:33;;;;;;;25.50;13.27;;;;;;;21.08;13.32;100935.19;5076324;28;20032;-67
2023/04/17 09:49:07;;;;;;;31.35;16.35;;;;;;;20.96;13.28;100941.94;5092957;28;20035;-66
2023/04/17 09:51:33;;;;;;;40.05;22.75;;;;;;;20.77;13.19;100937.59;5094108;28;20043;-67
2023/04/17 09:54:04;;;;;;;56.58;30.38;;;;;;;20.63;13.96;100930.88;5094210;28;20419;-69
2023/04/17 09:56:32;;;;;;;33.63;18.75;;;;;;;20.54;13.73;100926.44;5094546;28;20032;-66
2023/04/17 09:59:01;;;;;;;40.08;19.48;;;;;;;20.66;13.88;100927.84;5093766;28;20036;-67
2023/04/17 10:01:28;;;;;;;13.85;9.02;;;;;;;20.68;13.69;100939.41;5075959;28;20035;-68
2023/04/17 10:03:55;;;;;;;12.70;7.05;;;;;;;20.50;13.77;100934.06;5094192;28;20036;-67
2023/04/17 10:06:21;;;;;;;12.48;6.45;;;;;;;20.36;13.77;100925.47;5093354;28;20036;-67
2023/04/17 10:08:47;;;;;;;15.15;7.90;;;;;;;20.16;14.00;100922.13;5076523;28;20090;-68
2023/04/17 10:11:13;;;;;;;13.45;8.20;;;;;;;20.10;14.04;100925.50;5076450;28;20027;-67
2023/04/17 10:13:43;;;;;;;13.63;8.07;;;;;;;20.13;14.22;100930.63;5076110;28;20096;-65
2023/04/17 10:16:10;;;;;;;10.38;6.80;;;;;;;20.04;14.02;100928.88;5075562;28;20031;-67
2023/04/17 10:18:35;;;;;;;14.23;6.75;;;;;;;19.93;14.46;100919.94;5093556;28;20541;-67
2023/04/17 10:21:21;;;;;;;12.60;6.32;;;;;;;20.19;13.96;100926.41;5075207;28;20127;-66
2023/04/17 10:23:47;;;;;;;;;;;;;;;20.78;13.55;100923.81;5076727;28;20043;-71
2023/04/17 10:26:33;;;;;;;7.78;5.68;;;;;;;20.53;13.84;100924.72;5093860;28;20306;-67
2023/04/17 10:28:59;;;;;;;10.23;6.43;;;;;;;20.02;14.71;100914.59;5075117;28;20063;-66
2023/04/17 10:32:02;;;;;;;8.95;6.53;;;;;;;20.02;14.62;100925.47;5093378;28;20482;-67
2023/04/17 10:34:35;;;;;;;13.90;6.50;;;;;;;19.73;14.91;100921.09;5093208;28;20039;-71
2023/04/17 10:37:01;;;;;;;13.65;6.55;;;;;;;19.34;15.32;100911.44;5059398;28;20038;-68
2023/04/17 10:39:47;;;;;;;13.80;5.80;;;;;;;19.10;15.69;100907.44;5076157;28;20415;-66
2023/04/17 10:42:18;;;;;;;11.00;6.63;;;;;;;19.34;15.51;100936.72;5094361;28;20035;-64
2023/04/17 10:44:47;;;;;;;10.38;6.30;;;;;;;19.23;16.03;100923.38;5094468;28;20177;-68
2023/04/17 10:47:13;;;;;;;9.93;5.82;;;;;;;19.13;15.86;100933.44;5094279;28;20028;-69
2023/04/17 10:49:58;;;;;;;12.10;5.45;;;;;;;19.16;15.89;100931.25;5093277;28;20442;-67
2023/04/17 10:52:39;;;;;;;9.77;5.50;;;;;;;19.18;16.18;100931.13;5093234;28;20161;-69
2023/04/17 10:55:09;;;;;;;9.95;5.47;;;;;;;19.06;16.15;100938.63;5093694;28;20027;-66
2023/04/17 10:57:55;;;;;;;7.70;5.05;;;;;;;19.22;15.88;100924.38;5093550;28;20028;-64
2023/04/17 11:00:29;;;;;;;10.98;4.70;;;;;;;18.91;16.34;100897.56;5075625;28;20081;-66
2023/04/17 11:02:55;;;;;;;6.45;4.90;;;;;;;18.93;16.43;100922.69;5075486;28;20024;-67
2023/04/17 11:05:22;;;;;;;7.45;5.35;;;;;;;18.90;16.10;100918.41;5093003;28;20051;-67
2023/04/17 11:07:52;;;;;;;9.88;4.88;;;;;;;18.89;16.30;100921.28;5093901;28;20032;-67
2023/04/17 11:10:22;;;;;;;7.65;5.18;;;;;;;18.96;16.49;100927.78;5093231;28;20059;-69
2023/04/17 11:12:49;;;;;;;6.35;4.22;;;;;;;19.06;16.62;100927.78;5093882;28;20097;-67
2023/04/17 11:15:18;;;;;;;10.20;4.78;;;;;;;19.09;16.46;100919.31;5094253;28;20407;-66